Nearby METAR Reports

 

KSJC - San Jose, California, USA
Distance from station: NØ 14km
Opdateret: 23/02/2019 0303:0202
Few Clouds
Few Clouds
 Vind retning varies
Vind: varies 6 km/h
Temperatur: 3°C
Dugpunkt: -1°C
Fugtighed: 75%
Barometer: 1026.4 hPa
Clouds: Few Clouds
Visibility: 16 km
Cloud details: Few Clouds 762 m
Few Clouds 1829 m
Few Clouds 3048 m
2019/02/23 14:53 KSJC 231453Z VRB03KT 10SM FEW025 FEW060 FEW100 03/M01 A3031 RMK AO2 SLP262 T00331011 53013 $
KNUQ - Moffett Nas/Mtn, California, USA
Distance from station: N 14km
Opdateret: 23/02/2019 0303:0202
Klart
Klart
 Vind retning calm
Vind: Vindstille
Temperatur: 3°C
Dugpunkt: -1°C
Fugtighed: 75%
Barometer: 1026.4 hPa
Clouds: Klart
Visibility: 16 km
2019/02/23 14:56 KNUQ 231456Z 00000KT 10SM CLR 03/M01 A3031 RMK AO2 SLP267 T00331011 53014 $
 
KPAO - Palo Alto, California, USA
Distance from station: NNV 23km
Opdateret: 23/02/2019 0303:0202
Delvist skyet
Delvist skyet
 Vind retning calm
Vind: Vindstille
Barometer: 1026.8 hPa
Clouds: Delvist skyet
Visibility: 16 km
Cloud details: Few Clouds 305 m
Delvist skyet 3658 m
2019/02/23 14:47 KPAO 231447Z 00000KT 10SM FEW010 SCT120 A3032 RMK WIND ESTIMATED
KRHV - San Jose/Reid, California, USA
Distance from station: ØNØ 19km
Opdateret: 23/02/2019 0404:0202
Delvist skyet
Delvist skyet
 Vind retning calm
Vind: Vindstille
Temperatur: 3°C
Dugpunkt: 1°C
Fugtighed: 87%
Barometer: 1026.4 hPa
Clouds: Delvist skyet
Visibility: 16 km
Cloud details: Delvist skyet 3658 m
2019/02/23 15:47 KRHV 231547Z 00000KT 10SM SCT120 03/01 A3031
 
KOAK - Oakland, California, USA
Distance from station: NNV 50km
Opdateret: 23/02/2019 0303:0202
Delvist skyet
Delvist skyet
 Vind retning ØSØ
Vind: ØSØ 6 km/h
Temperatur: 3°C
Dugpunkt: -1°C
Fugtighed: 75%
Barometer: 1026.4 hPa
Clouds: Delvist skyet
Visibility: 16 km
Cloud details: Few Clouds 671 m
Delvist skyet 3658 m
Delvist skyet 6096 m
2019/02/23 14:53 KOAK 231453Z 11003KT 10SM FEW022 SCT120 SCT200 03/M01 A3031 RMK AO2 SLP262 T00331006 51016
KSQL - San Carlos Airpo, California, USA
Distance from station: NV 34km
Opdateret: 23/02/2019 0404:0202
Few Clouds
Few Clouds
 Vind retning calm
Vind: Vindstille
Temperatur: 4°C
Dugpunkt: -2°C
Fugtighed: 65%
Barometer: 1026.8 hPa
Clouds: Few Clouds
Visibility: 16 km
Cloud details: Few Clouds 1524 m
2019/02/23 15:47 KSQL 231547Z 00000KT 10SM FEW050 04/M02 A3032
 
KSFO - San Francisco, California, USA
Distance from station: NV 49km
Opdateret: 23/02/2019 0303:0202
Delvist skyet
Delvist skyet
 Vind retning SSØ
Vind: SSØ 6 km/h
Temperatur: 6°C
Dugpunkt: 3°C
Fugtighed: 81%
Barometer: 1025.7 hPa
Clouds: Delvist skyet
Visibility: 16 km
Cloud details: Few Clouds 549 m
Delvist skyet 6096 m
2019/02/23 14:56 KSFO 231456Z 15003KT 10SM FEW018 SCT200 06/03 A3029 RMK AO2 SLP257 T00560028 51017
KE16 - San Martin, California, USA
Distance from station: ØSØ 43km
Opdateret: 23/02/2019 0404:0202
Klart
Klart
 Vind retning calm
Vind: Vindstille
Temperatur: 0°C
Dugpunkt: -2°C
Fugtighed: 87%
Barometer: 1027.4 hPa
Clouds: Klart
Visibility: 16 km
2019/02/23 15:35 KE16 231535Z AUTO 00000KT 10SM CLR 00/M02 A3034 RMK AO2
 
KWVI - Watsonville, California, USA
Distance from station: SSØ 44km
Opdateret: 23/02/2019 0303:0202
Klart
Klart
 Vind retning calm
Vind: Vindstille
Temperatur: 1°C
Dugpunkt: -1°C
Fugtighed: 87%
Barometer: 1026.8 hPa
Clouds: Klart
Visibility: 16 km
2019/02/23 14:53 KWVI 231453Z AUTO 00000KT 10SM CLR 01/M01 A3032 RMK AO2 SLP267 T00061011 53013
KHAF - Half Moon Bay, California, USA
Distance from station: VNV 50km
Opdateret: 13/02/2019 1111:0202
NOT Current
Let regn, Overskyet
Let regn, Overskyet
 Vind retning S
Vind: S 54 km/h, Vindstød: 69 km/h
Temperatur: 13°C
Dugpunkt: 12°C
Fugtighed: 94%
Barometer: 1000.3 hPa
Oversigt: Let regn
Clouds: Overskyet
Visibility: 1.2 km
Cloud details: Overskyet 213 m
2019/02/13 22:15 KHAF 132215Z AUTO 17029G37KT 3/4SM -RA OVC007 13/12 A2954 RMK AO2
 
KHWD - Hayward, California, USA
Distance from station: N 44km
Opdateret: 23/02/2019 0303:0202
Delvist skyet
Delvist skyet
 Vind retning ØNØ
Vind: ØNØ 7 km/h
Temperatur: 3°C
Wind Chill: 1°C
Dugpunkt: -2°C
Fugtighed: 70%
Barometer: 1026.1 hPa
Clouds: Delvist skyet
Visibility: 16 km
Cloud details: Delvist skyet 3353 m
2019/02/23 14:54 KHWD 231454Z 07004KT 10SM SCT110 03/M02 A3030 RMK AO2 SLP270 T00331017 51015
KLVK - Livermore, California, USA
Distance from station: NNØ 51km
Opdateret: 23/02/2019 0303:0202
Klart
Klart
 Vind retning calm
Vind: Vindstille
Temperatur: -1°C
Dugpunkt: -4°C
Fugtighed: 80%
Barometer: 1026.1 hPa
Clouds: Klart
Visibility: 16 km
2019/02/23 14:53 KLVK 231453Z 00000KT 10SM CLR M01/M04 A3030 RMK AO2 SLP263 T10111039 53016